Time;durP1;ratioP1;P1;durP2;ratioP2;P2;SDS_P1;SDS_P2;PMS_P1;PMS_P2;Temp;Humidity;BMP_temperature;BMP_pressure;BME280_temperature;BME280_humidity;BME280_pressure;Samples;Min_cycle;Max_cycle;Signal;HPM_P1;HPM_P2
2023/07/21 00:01:52;;;;;;;12.90;7.70;;;;;;;;;;5017097;28;20033;-81
2023/07/21 00:04:18;;;;;;;10.38;8.23;;;;;;;;;;5035254;28;20446;-81
2023/07/21 00:06:43;;;;;;;13.05;8.27;;;;;;;;;;5034881;28;20128;-81
2023/07/21 00:09:12;;;;;;;9.70;8.20;;;;;;;;;;5033793;28;20358;-80
2023/07/21 00:11:38;;;;;;;12.48;7.60;;;;;;;;;;5035612;28;20030;-81
2023/07/21 00:14:07;;;;;;;12.98;7.85;;;;;;;;;;5016922;28;20034;-80
2023/07/21 00:16:33;;;;;;;10.73;8.07;;;;;;;;;;5035120;28;20025;-81
2023/07/21 00:18:58;;;;;;;10.13;7.90;;;;;;;;;;5034814;28;20431;-81
2023/07/21 00:21:24;;;;;;;11.18;7.88;;;;;;;;;;5034841;28;20033;-81
2023/07/21 00:23:51;;;;;;;14.82;8.85;;;;;;;;;;5016858;28;20037;-82
2023/07/21 00:26:16;;;;;;;12.80;8.02;;;;;;;;;;5034893;28;20033;-81
2023/07/21 00:28:42;;;;;;;10.15;8.50;;;;;;;;;;5034408;28;20346;-81
2023/07/21 00:31:07;;;;;;;12.43;8.50;;;;;;;;;;5035162;28;20021;-81
2023/07/21 00:33:33;;;;;;;12.45;8.25;;;;;;;;;;5034502;28;20111;-81
2023/07/21 00:35:58;;;;;;;14.52;8.02;;;;;;;;;;5033620;28;20129;-80
2023/07/21 00:38:25;;;;;;;11.52;8.50;;;;;;;;;;5034763;28;20029;-81
2023/07/21 00:40:50;;;;;;;14.48;8.50;;;;;;;;;;5034362;28;20017;-81
2023/07/21 00:43:16;;;;;;;12.00;8.82;;;;;;;;;;5034095;28;20030;-81
2023/07/21 00:45:41;;;;;;;12.85;7.60;;;;;;;;;;5034276;28;20175;-81
2023/07/21 00:48:10;;;;;;;12.35;8.27;;;;;;;;;;5016649;28;20027;-81
2023/07/21 00:50:46;;;;;;;14.95;8.15;;;;;;;;;;5016937;28;20414;-81
2023/07/21 00:53:11;;;;;;;15.68;8.98;;;;;;;;;;5016672;28;20053;-81
2023/07/21 00:55:38;;;;;;;14.80;8.27;;;;;;;;;;5034765;28;20053;-81
2023/07/21 00:58:04;;;;;;;12.25;8.38;;;;;;;;;;5033150;28;20025;-80
2023/07/21 01:00:31;;;;;;;15.63;8.27;;;;;;;;;;5016555;28;20452;-81
2023/07/21 01:02:57;;;;;;;12.38;8.40;;;;;;;;;;5016708;28;20025;-81
2023/07/21 01:05:23;;;;;;;14.60;8.15;;;;;;;;;;5033133;28;20056;-81
2023/07/21 01:07:50;;;;;;;14.80;8.35;;;;;;;;;;5016758;28;20032;-80
2023/07/21 01:10:16;;;;;;;13.45;8.38;;;;;;;;;;5034411;28;20346;-81
2023/07/21 01:12:41;;;;;;;12.85;8.45;;;;;;;;;;5033080;28;20030;-81
2023/07/21 01:15:07;;;;;;;11.35;8.68;;;;;;;;;;5016349;28;20745;-81
2023/07/21 01:17:33;;;;;;;14.38;8.45;;;;;;;;;;5033123;28;20112;-81
2023/07/21 01:19:58;;;;;;;12.13;8.45;;;;;;;;;;5016547;28;20433;-81
2023/07/21 01:22:25;;;;;;;10.32;8.20;;;;;;;;;;5016459;28;20029;-80
2023/07/21 01:24:50;;;;;;;13.00;8.20;;;;;;;;;;5032658;28;20086;-81
2023/07/21 01:27:20;;;;;;;11.65;7.78;;;;;;;;;;5033810;28;20119;-81
2023/07/21 01:29:45;;;;;;;;;;;;;;;;;;5017359;28;20033;-81
2023/07/21 01:32:14;;;;;;;12.30;8.15;;;;;;;;;;5033827;28;20378;-82
2023/07/21 01:34:39;;;;;;;14.98;8.25;;;;;;;;;;5032984;28;20036;-82
2023/07/21 01:37:07;;;;;;;15.27;8.27;;;;;;;;;;5016182;28;20026;-82
2023/07/21 01:39:34;;;;;;;12.50;8.00;;;;;;;;;;5032820;28;20365;-82
2023/07/21 01:42:00;;;;;;;10.55;7.85;;;;;;;;;;5033565;28;20021;-82
2023/07/21 01:44:25;;;;;;;11.05;7.70;;;;;;;;;;5033820;28;20033;-82
2023/07/21 01:46:52;;;;;;;16.27;8.32;;;;;;;;;;5016118;28;20029;-82
2023/07/21 01:49:18;;;;;;;12.82;8.10;;;;;;;;;;5037927;28;20036;-82
2023/07/21 01:51:43;;;;;;;10.43;7.75;;;;;;;;;;5037551;28;20033;-81
2023/07/21 01:54:18;;;;;;;15.85;8.45;;;;;;;;;;5003793;28;20045;-82
2023/07/21 01:56:46;;;;;;;15.18;8.38;;;;;;;;;;5003849;28;20029;-82
2023/07/21 01:59:12;;;;;;;12.77;8.00;;;;;;;;;;5036594;28;20037;-82
2023/07/21 02:01:37;;;;;;;11.13;8.20;;;;;;;;;;5036337;28;20440;-82
2023/07/21 02:04:03;;;;;;;10.25;8.02;;;;;;;;;;5019850;28;20463;-81
2023/07/21 02:06:29;;;;;;;11.18;8.10;;;;;;;;;;5037172;28;20129;-80
2023/07/21 02:08:54;;;;;;;9.15;7.38;;;;;;;;;;5036155;28;20022;-81
2023/07/21 02:11:20;;;;;;;9.40;7.57;;;;;;;;;;5019413;28;20078;-82
2023/07/21 02:13:46;;;;;;;10.73;7.85;;;;;;;;;;5037155;28;20029;-82
2023/07/21 02:16:11;;;;;;;10.77;7.93;;;;;;;;;;5036047;28;20026;-82
2023/07/21 02:18:38;;;;;;;15.43;7.18;;;;;;;;;;5037048;28;20494;-82
2023/07/21 02:21:04;;;;;;;13.63;7.60;;;;;;;;;;5037034;28;20032;-81
2023/07/21 02:23:31;;;;;;;15.80;7.95;;;;;;;;;;5036944;28;20033;-82
2023/07/21 02:25:57;;;;;;;13.45;7.47;;;;;;;;;;5019419;28;20065;-82
2023/07/21 02:28:22;;;;;;;9.43;7.40;;;;;;;;;;5036987;28;20048;-81
2023/07/21 02:31:02;;;;;;;10.80;7.45;;;;;;;;;;5036805;28;20033;-82
2023/07/21 02:33:29;;;;;;;13.32;7.18;;;;;;;;;;5035669;28;20453;-82
2023/07/21 02:35:54;;;;;;;10.93;7.75;;;;;;;;;;5036951;28;20083;-82
2023/07/21 02:38:20;;;;;;;13.23;7.97;;;;;;;;;;5036751;28;20021;-82
2023/07/21 02:40:45;;;;;;;11.85;7.78;;;;;;;;;;5036990;28;20120;-81
2023/07/21 02:43:12;;;;;;;11.02;8.00;;;;;;;;;;5037084;28;20025;-81
2023/07/21 02:45:38;;;;;;;13.27;8.15;;;;;;;;;;5035529;28;20457;-82
2023/07/21 02:48:06;;;;;;;13.10;7.90;;;;;;;;;;5036837;28;20037;-81
2023/07/21 02:50:32;;;;;;;14.27;8.98;;;;;;;;;;5019201;28;20152;-81
2023/07/21 02:52:57;;;;;;;13.65;8.07;;;;;;;;;;5035296;28;20116;-81
2023/07/21 02:55:22;;;;;;;11.98;8.40;;;;;;;;;;5036209;28;20037;-80
2023/07/21 02:57:48;;;;;;;13.60;8.32;;;;;;;;;;5018964;28;20045;-81
2023/07/21 03:00:14;;;;;;;11.65;8.13;;;;;;;;;;5017850;28;20044;-80
2023/07/21 03:02:41;;;;;;;12.77;8.35;;;;;;;;;;5018540;28;20037;-80
2023/07/21 03:05:07;;;;;;;15.88;8.45;;;;;;;;;;5036195;28;20045;-81
2023/07/21 03:07:33;;;;;;;17.92;8.85;;;;;;;;;;5036391;28;20029;-82
2023/07/21 03:09:58;;;;;;;14.20;8.35;;;;;;;;;;5018391;28;20048;-81
2023/07/21 03:12:23;;;;;;;11.02;8.30;;;;;;;;;;5034998;28;20025;-81
2023/07/21 03:14:49;;;;;;;14.23;8.52;;;;;;;;;;5036068;28;20033;-81
2023/07/21 03:17:14;;;;;;;14.13;7.72;;;;;;;;;;5035973;28;20028;-81
2023/07/21 03:19:40;;;;;;;12.52;8.07;;;;;;;;;;5035905;28;20026;-81
2023/07/21 03:22:05;;;;;;;11.80;8.15;;;;;;;;;;5035862;28;20021;-81
2023/07/21 03:24:32;;;;;;;13.75;7.95;;;;;;;;;;5035584;28;20480;-80
2023/07/21 03:26:58;;;;;;;14.95;8.10;;;;;;;;;;5035836;28;20025;-79
2023/07/21 03:29:23;;;;;;;12.80;8.85;;;;;;;;;;5035795;28;20040;-81
2023/07/21 03:31:49;;;;;;;14.82;8.82;;;;;;;;;;5035680;28;20034;-81
2023/07/21 03:34:14;;;;;;;14.63;8.65;;;;;;;;;;5001993;28;20426;-81
2023/07/21 03:36:40;;;;;;;15.75;8.52;;;;;;;;;;5001597;28;20079;-80
2023/07/21 03:39:05;;;;;;;14.07;8.38;;;;;;;;;;5001366;28;20525;-80
2023/07/21 03:41:31;;;;;;;14.82;8.57;;;;;;;;;;5034604;28;20349;-80
2023/07/21 03:43:56;;;;;;;13.40;8.30;;;;;;;;;;5035732;28;20029;-81
2023/07/21 03:46:22;;;;;;;11.57;7.95;;;;;;;;;;5035504;28;20029;-81
2023/07/21 03:48:48;;;;;;;12.98;8.50;;;;;;;;;;5035932;28;20026;-81
2023/07/21 03:51:13;;;;;;;9.90;8.15;;;;;;;;;;5001737;28;20030;-81
2023/07/21 03:53:39;;;;;;;14.70;8.80;;;;;;;;;;5034171;28;20037;-80
2023/07/21 03:56:05;;;;;;;12.38;8.63;;;;;;;;;;5035219;28;20148;-80
2023/07/21 03:58:31;;;;;;;13.63;8.80;;;;;;;;;;5017565;28;20037;-80
2023/07/21 04:00:58;;;;;;;13.70;8.20;;;;;;;;;;5035462;28;20029;-79
2023/07/21 04:03:24;;;;;;;14.65;9.05;;;;;;;;;;5035221;28;20044;-80
2023/07/21 04:05:53;;;;;;;13.93;8.60;;;;;;;;;;5034908;28;20168;-80
2023/07/21 04:08:19;;;;;;;14.95;8.35;;;;;;;;;;5035038;28;20041;-80
2023/07/21 04:10:44;;;;;;;16.85;8.52;;;;;;;;;;5034939;28;20049;-80
2023/07/21 04:13:10;;;;;;;15.45;9.25;;;;;;;;;;5001876;28;20116;-80
2023/07/21 04:15:35;;;;;;;17.88;9.85;;;;;;;;;;5035912;28;20029;-80
2023/07/21 04:18:01;;;;;;;10.02;8.57;;;;;;;;;;5036198;28;20120;-81
2023/07/21 04:20:28;;;;;;;13.00;8.90;;;;;;;;;;5036502;28;20025;-80
2023/07/21 04:22:54;;;;;;;11.00;8.50;;;;;;;;;;5036222;28;20504;-80
2023/07/21 04:25:20;;;;;;;13.60;8.90;;;;;;;;;;5045899;28;20032;-84
2023/07/21 04:27:50;;;;;;;13.95;8.00;;;;;;;;;;5041537;28;20045;-80
2023/07/21 04:30:16;;;;;;;15.43;8.88;;;;;;;;;;5057718;28;20162;-82
2023/07/21 04:32:42;;;;;;;15.68;9.48;;;;;;;;;;5057655;28;20036;-81
2023/07/21 04:35:10;;;;;;;15.27;8.73;;;;;;;;;;5056346;28;20379;-81
2023/07/21 04:37:36;;;;;;;16.27;8.10;;;;;;;;;;5034657;28;20128;-80
2023/07/21 04:40:02;;;;;;;14.48;7.63;;;;;;;;;;5035104;28;20087;-82
2023/07/21 04:42:28;;;;;;;10.02;7.47;;;;;;;;;;5017482;28;20083;-80
2023/07/21 04:44:53;;;;;;;14.38;7.65;;;;;;;;;;5035103;28;20123;-81
2023/07/21 04:47:19;;;;;;;11.13;7.32;;;;;;;;;;5016756;28;20025;-81
2023/07/21 04:49:48;;;;;;;9.90;7.45;;;;;;;;;;5033179;28;20358;-81
2023/07/21 04:52:14;;;;;;;21.30;7.57;;;;;;;;;;5017730;28;20388;-81
2023/07/21 04:54:39;;;;;;;9.07;7.13;;;;;;;;;;5034332;28;20088;-81
2023/07/21 04:57:05;;;;;;;10.43;7.00;;;;;;;;;;5034660;28;20033;-82
2023/07/21 04:59:30;;;;;;;10.50;7.18;;;;;;;;;;5016533;28;20041;-81
2023/07/21 05:01:56;;;;;;;15.20;7.00;;;;;;;;;;5033066;28;20021;-82
2023/07/21 05:04:22;;;;;;;12.30;6.78;;;;;;;;;;5034100;28;20473;-82
2023/07/21 05:06:48;;;;;;;11.27;6.57;;;;;;;;;;5016573;28;20052;-80
2023/07/21 05:09:14;;;;;;;10.45;6.70;;;;;;;;;;5016549;28;20447;-81
2023/07/21 05:11:40;;;;;;;12.25;7.30;;;;;;;;;;5016408;28;20492;-82
2023/07/21 05:14:05;;;;;;;12.88;6.97;;;;;;;;;;5016908;28;20025;-82
2023/07/21 05:16:31;;;;;;;14.18;7.55;;;;;;;;;;5000229;28;20131;-81
2023/07/21 05:18:58;;;;;;;12.75;6.72;;;;;;;;;;5016952;28;20098;-82
2023/07/21 05:21:23;;;;;;;11.85;6.90;;;;;;;;;;5034580;28;20119;-81
2023/07/21 05:23:48;;;;;;;13.13;6.63;;;;;;;;;;5040360;28;20129;-82
2023/07/21 05:26:14;;;;;;;14.38;7.03;;;;;;;;;;5040623;28;20030;-82
2023/07/21 05:28:39;;;;;;;11.98;7.20;;;;;;;;;;5040385;28;20032;-82
2023/07/21 05:31:06;;;;;;;11.30;6.60;;;;;;;;;;5040315;28;20033;-81
2023/07/21 05:33:32;;;;;;;12.00;6.78;;;;;;;;;;5039249;28;20455;-82
2023/07/21 05:36:09;;;;;;;10.23;6.22;;;;;;;;;;5040554;28;20040;-82
2023/07/21 05:38:35;;;;;;;14.05;6.18;;;;;;;;;;5040530;28;20127;-82
2023/07/21 05:41:01;;;;;;;15.55;6.15;;;;;;;;;;5023128;28;20069;-82
2023/07/21 05:43:26;;;;;;;9.65;5.38;;;;;;;;;;5022626;28;20159;-82
2023/07/21 05:45:52;;;;;;;14.05;6.03;;;;;;;;;;5039235;28;20030;-82
2023/07/21 05:48:17;;;;;;;10.32;6.15;;;;;;;;;;5040069;28;20033;-81
2023/07/21 05:50:42;;;;;;;15.30;6.18;;;;;;;;;;5023080;28;20021;-82
2023/07/21 05:53:08;;;;;;;12.20;5.57;;;;;;;;;;5040267;28;20415;-82
2023/07/21 05:55:33;;;;;;;13.07;6.22;;;;;;;;;;5039577;28;20067;-82
2023/07/21 05:57:59;;;;;;;13.45;6.13;;;;;;;;;;5006014;28;20033;-82
2023/07/21 06:00:25;;;;;;;11.57;5.78;;;;;;;;;;5040464;28;20457;-83
2023/07/21 06:02:51;;;;;;;9.20;5.85;;;;;;;;;;5039923;28;20028;-82
2023/07/21 06:05:16;;;;;;;14.60;6.30;;;;;;;;;;5022242;28;20404;-81
2023/07/21 06:07:43;;;;;;;9.48;6.20;;;;;;;;;;5022422;28;20431;-82
2023/07/21 06:10:12;;;;;;;14.57;6.20;;;;;;;;;;5023159;28;20029;-82
2023/07/21 06:12:38;;;;;;;12.90;6.00;;;;;;;;;;5022460;28;20033;-82
2023/07/21 06:15:06;;;;;;;12.32;5.70;;;;;;;;;;5006206;28;20037;-82
2023/07/21 06:17:31;;;;;;;15.63;6.07;;;;;;;;;;5005686;28;20227;-82
2023/07/21 06:19:57;;;;;;;9.38;5.88;;;;;;;;;;5040063;28;20112;-84
2023/07/21 06:22:23;;;;;;;11.07;5.35;;;;;;;;;;5022397;28;20101;-83
2023/07/21 06:24:48;;;;;;;12.20;6.07;;;;;;;;;;5038797;28;20025;-83
2023/07/21 06:27:13;;;;;;;11.85;6.07;;;;;;;;;;5022298;28;20021;-84
2023/07/21 06:29:39;;;;;;;16.45;6.35;;;;;;;;;;5039843;28;20044;-83
2023/07/21 06:32:20;;;;;;;12.43;5.85;;;;;;;;;;5039498;28;20026;-83
2023/07/21 06:34:46;;;;;;;17.60;6.70;;;;;;;;;;5021282;28;20045;-82
2023/07/21 06:37:12;;;;;;;11.40;6.18;;;;;;;;;;5035656;28;20087;-81
2023/07/21 06:39:37;;;;;;;11.32;6.03;;;;;;;;;;5035467;28;20516;-82
2023/07/21 06:42:04;;;;;;;11.55;6.28;;;;;;;;;;5018862;28;20037;-82
2023/07/21 06:44:31;;;;;;;10.57;6.47;;;;;;;;;;5036513;28;20079;-82
2023/07/21 06:46:57;;;;;;;10.60;6.53;;;;;;;;;;5036663;28;20036;-83
2023/07/21 06:49:22;;;;;;;15.27;6.10;;;;;;;;;;5018891;28;20034;-82
2023/07/21 06:51:48;;;;;;;12.32;6.45;;;;;;;;;;5036661;28;20083;-83
2023/07/21 06:54:13;;;;;;;14.43;6.68;;;;;;;;;;5035626;28;20037;-82
2023/07/21 06:56:39;;;;;;;11.13;6.75;;;;;;;;;;5036640;28;20083;-83
2023/07/21 06:59:04;;;;;;;12.50;6.13;;;;;;;;;;5036398;28;20029;-82
2023/07/21 07:01:30;;;;;;;11.50;6.55;;;;;;;;;;5036227;28;20025;-82
2023/07/21 07:03:55;;;;;;;11.02;6.38;;;;;;;;;;5018452;28;20651;-83
2023/07/21 07:06:21;;;;;;;16.33;6.13;;;;;;;;;;5015195;28;20073;-83
2023/07/21 07:08:46;;;;;;;15.48;6.30;;;;;;;;;;5016439;28;20568;-81
2023/07/21 07:11:12;;;;;;;9.77;6.47;;;;;;;;;;5015406;28;20491;-83
2023/07/21 07:13:37;;;;;;;10.23;6.78;;;;;;;;;;5016318;28;20072;-82
2023/07/21 07:16:03;;;;;;;13.40;6.30;;;;;;;;;;5014844;28;20060;-82
2023/07/21 07:18:29;;;;;;;15.30;6.95;;;;;;;;;;5014950;28;20099;-83
2023/07/21 07:20:55;;;;;;;15.65;6.40;;;;;;;;;;4998852;28;20401;-83
2023/07/21 07:23:21;;;;;;;16.45;6.75;;;;;;;;;;5014974;28;20026;-84
2023/07/21 07:25:51;;;;;;;15.18;6.57;;;;;;;;;;4998979;28;20350;-81
2023/07/21 07:28:17;;;;;;;12.75;6.65;;;;;;;;;;4998935;28;20030;-80
2023/07/21 07:30:43;;;;;;;15.40;6.78;;;;;;;;;;5014815;28;20129;-82
2023/07/21 07:33:08;;;;;;;10.63;6.55;;;;;;;;;;5016284;28;20470;-81
2023/07/21 07:35:34;;;;;;;11.23;6.43;;;;;;;;;;4998342;28;20374;-81
2023/07/21 07:37:59;;;;;;;13.50;6.18;;;;;;;;;;4998676;28;20072;-80
2023/07/21 07:40:25;;;;;;;7.95;6.43;;;;;;;;;;5015971;28;20022;-81
2023/07/21 07:42:50;;;;;;;11.27;6.60;;;;;;;;;;5014478;28;20034;-81
2023/07/21 07:45:16;;;;;;;10.35;5.80;;;;;;;;;;5014974;28;20092;-83
2023/07/21 07:47:44;;;;;;;12.05;5.85;;;;;;;;;;5014485;28;20032;-83
2023/07/21 07:50:11;;;;;;;13.32;6.00;;;;;;;;;;5015069;28;20029;-83
2023/07/21 07:52:39;;;;;;;9.13;6.25;;;;;;;;;;4982039;28;20049;-80
2023/07/21 07:55:05;;;;;;;8.68;5.90;;;;;;;;;;4998449;28;20088;-84
2023/07/21 07:57:31;;;;;;;13.63;6.18;;;;;;;;;;5015790;28;20093;-82
2023/07/21 07:59:56;;;;;;;12.43;5.95;;;;;;;;;;5015509;28;20026;-80
2023/07/21 08:02:22;;;;;;;9.13;5.68;;;;;;;;;;5014251;28;20025;-80
2023/07/21 08:04:47;;;;;;;8.73;5.57;;;;;;;;;;5017127;28;20038;-81
2023/07/21 08:07:12;;;;;;;11.25;6.22;;;;;;;;;;5017352;28;20464;-81
2023/07/21 08:09:38;;;;;;;11.90;6.40;;;;;;;;;;5001140;28;20543;-81
2023/07/21 08:12:03;;;;;;;10.05;6.22;;;;;;;;;;5033834;28;20338;-81
2023/07/21 08:14:29;;;;;;;9.13;5.93;;;;;;;;;;5017097;28;20067;-81
2023/07/21 08:16:54;;;;;;;12.85;6.97;;;;;;;;;;5017352;28;20036;-81
2023/07/21 08:19:20;;;;;;;11.10;6.80;;;;;;;;;;5034931;28;20017;-82
2023/07/21 08:21:48;;;;;;;10.02;6.30;;;;;;;;;;5034778;28;20353;-82
2023/07/21 08:24:15;;;;;;;8.70;6.45;;;;;;;;;;5017031;28;20034;-81
2023/07/21 08:26:40;;;;;;;11.68;7.18;;;;;;;;;;5017303;28;20391;-82
2023/07/21 08:29:08;;;;;;;11.18;7.13;;;;;;;;;;5016789;28;20105;-82
2023/07/21 08:31:33;;;;;;;12.23;6.70;;;;;;;;;;5034675;28;20080;-82
2023/07/21 08:33:58;;;;;;;10.38;6.32;;;;;;;;;;5034559;28;20276;-81
2023/07/21 08:36:24;;;;;;;13.25;6.47;;;;;;;;;;5034647;28;20013;-82
2023/07/21 08:38:50;;;;;;;13.63;7.13;;;;;;;;;;5033326;28;20076;-82
2023/07/21 08:41:17;;;;;;;9.32;5.70;;;;;;;;;;5033524;28;20476;-81
2023/07/21 08:43:43;;;;;;;8.27;6.13;;;;;;;;;;5016910;28;20132;-81
2023/07/21 08:46:09;;;;;;;9.80;6.03;;;;;;;;;;5016983;28;20361;-81
2023/07/21 08:48:34;;;;;;;13.27;6.03;;;;;;;;;;5034491;28;20053;-81
2023/07/21 08:51:00;;;;;;;10.25;5.97;;;;;;;;;;5016988;28;20048;-82
2023/07/21 08:53:25;;;;;;;13.90;6.20;;;;;;;;;;5034592;28;20350;-83
2023/07/21 08:55:55;;;;;;;12.85;5.60;;;;;;;;;;5016798;28;20021;-82
2023/07/21 08:58:21;;;;;;;13.65;6.30;;;;;;;;;;5032019;28;20048;-83
2023/07/21 09:00:52;;;;;;;9.50;5.78;;;;;;;;;;5016496;28;20033;-82
2023/07/21 09:03:55;;;;;;;11.48;5.88;;;;;;;;;;5016695;28;20024;-81
2023/07/21 09:06:21;;;;;;;8.57;5.40;;;;;;;;;;5016181;28;20071;-81
2023/07/21 09:08:47;;;;;;;8.52;5.60;;;;;;;;;;5016458;28;20365;-82
2023/07/21 09:11:13;;;;;;;10.35;5.75;;;;;;;;;;5016451;28;20092;-82
2023/07/21 09:13:39;;;;;;;8.00;5.72;;;;;;;;;;5034123;28;20034;-82
2023/07/21 09:16:05;;;;;;;15.48;5.93;;;;;;;;;;5016659;28;20037;-82
2023/07/21 09:18:42;;;;;;;11.63;5.82;;;;;;;;;;5016543;28;20032;-83
2023/07/21 09:21:14;;;;;;;11.55;6.15;;;;;;;;;;5016352;28;20026;-82
2023/07/21 09:23:39;;;;;;;9.25;6.30;;;;;;;;;;5016520;28;20029;-82
2023/07/21 09:26:05;;;;;;;14.35;6.45;;;;;;;;;;5016083;28;20104;-82
2023/07/21 09:28:44;;;;;;;15.63;6.43;;;;;;;;;;5032760;28;20030;-79
2023/07/21 09:31:10;;;;;;;15.82;6.40;;;;;;;;;;5033100;28;20025;-81
2023/07/21 09:33:38;;;;;;;9.23;6.00;;;;;;;;;;5016161;28;20025;-81
2023/07/21 09:36:11;;;;;;;10.05;5.90;;;;;;;;;;5016447;28;20025;-80
2023/07/21 09:38:37;;;;;;;9.05;6.03;;;;;;;;;;5016019;28;20071;-81
2023/07/21 09:41:03;;;;;;;8.85;5.45;;;;;;;;;;4999772;28;20429;-80
2023/07/21 09:43:29;;;;;;;10.02;5.25;;;;;;;;;;5034153;28;20032;-81
2023/07/21 09:45:56;;;;;;;10.13;5.32;;;;;;;;;;5033093;28;20025;-80
2023/07/21 09:48:22;;;;;;;10.68;5.70;;;;;;;;;;5016094;28;20116;-80
2023/07/21 09:50:47;;;;;;;7.15;5.18;;;;;;;;;;5033836;28;20060;-79
2023/07/21 09:53:13;;;;;;;11.95;5.25;;;;;;;;;;5033897;28;20022;-79
2023/07/21 09:55:40;;;;;;;9.15;5.80;;;;;;;;;;5016332;28;20025;-79
2023/07/21 09:58:06;;;;;;;11.88;5.63;;;;;;;;;;5016272;28;20033;-79
2023/07/21 10:00:33;;;;;;;9.60;5.93;;;;;;;;;;5016149;28;20032;-80
2023/07/21 10:02:58;;;;;;;13.52;5.93;;;;;;;;;;5033666;28;20544;-80
2023/07/21 10:05:24;;;;;;;10.48;6.28;;;;;;;;;;5012439;28;20144;-80
2023/07/21 10:07:50;;;;;;;9.27;6.00;;;;;;;;;;5014094;28;20072;-80
2023/07/21 10:10:16;;;;;;;13.45;6.20;;;;;;;;;;4999977;28;20050;-81
2023/07/21 10:12:52;;;;;;;10.80;6.07;;;;;;;;;;5016226;28;20059;-80
2023/07/21 10:15:19;;;;;;;11.18;6.13;;;;;;;;;;5016429;28;20041;-80
2023/07/21 10:18:02;;;;;;;12.98;5.63;;;;;;;;;;5017684;28;20029;-81
2023/07/21 10:20:49;;;;;;;13.60;5.60;;;;;;;;;;5016576;28;20349;-81
2023/07/21 10:23:26;;;;;;;11.18;6.30;;;;;;;;;;5017282;28;20389;-81
2023/07/21 10:25:52;;;;;;;9.20;5.97;;;;;;;;;;5016292;28;20446;-81
2023/07/21 10:28:24;;;;;;;11.30;6.43;;;;;;;;;;5016545;28;20477;-82
2023/07/21 10:30:50;;;;;;;11.55;6.28;;;;;;;;;;5016321;28;20113;-81
2023/07/21 10:33:22;;;;;;;8.95;6.43;;;;;;;;;;5016043;28;20553;-81
2023/07/21 10:35:48;;;;;;;12.23;6.32;;;;;;;;;;5016091;28;20087;-80
2023/07/21 10:38:13;;;;;;;9.57;6.57;;;;;;;;;;4999594;28;20034;-81
2023/07/21 10:40:42;;;;;;;10.43;6.65;;;;;;;;;;5017027;28;20068;-81
2023/07/21 10:43:07;;;;;;;11.48;6.25;;;;;;;;;;5017132;28;20066;-81
2023/07/21 10:45:33;;;;;;;12.90;6.40;;;;;;;;;;5016915;28;20458;-81
2023/07/21 10:48:11;;;;;;;16.10;6.65;;;;;;;;;;5015882;28;20028;-81
2023/07/21 10:50:59;;;;;;;8.07;5.95;;;;;;;;;;5016744;28;20017;-81
2023/07/21 10:53:25;;;;;;;;;;;;;;;;;;5017040;28;20072;-81
2023/07/21 10:55:52;;;;;;;12.75;6.35;;;;;;;;;;5017314;28;19913;-81
2023/07/21 10:58:17;;;;;;;11.20;6.50;;;;;;;;;;5016677;28;20033;-79
2023/07/21 11:00:47;;;;;;;8.63;5.85;;;;;;;;;;5015664;28;20022;-81
2023/07/21 11:03:12;;;;;;;10.68;6.72;;;;;;;;;;5016621;28;20074;-80
2023/07/21 11:05:39;;;;;;;9.98;6.60;;;;;;;;;;5024017;28;20460;-80
2023/07/21 11:08:04;;;;;;;10.10;6.13;;;;;;;;;;5035991;28;20055;-81
2023/07/21 11:10:33;;;;;;;12.23;6.53;;;;;;;;;;5018725;28;20104;-81
2023/07/21 11:12:59;;;;;;;;;;;;;;;;;;5036715;28;20030;-80
2023/07/21 11:15:24;;;;;;;16.00;6.63;;;;;;;;;;5036190;28;19913;-80
2023/07/21 11:17:59;;;;;;;9.23;6.47;;;;;;;;;;5018426;28;20029;-81
2023/07/21 11:20:24;;;;;;;11.50;7.05;;;;;;;;;;5035201;28;20018;-81
2023/07/21 11:22:50;;;;;;;13.05;6.45;;;;;;;;;;5035744;28;20017;-81
2023/07/21 11:25:16;;;;;;;12.38;6.82;;;;;;;;;;5018481;28;20353;-80
2023/07/21 11:27:44;;;;;;;10.07;6.15;;;;;;;;;;5035944;28;20104;-80
2023/07/21 11:30:18;;;;;;;9.10;6.25;;;;;;;;;;5036388;28;20057;-81
2023/07/21 11:32:43;;;;;;;14.30;6.85;;;;;;;;;;5018790;28;20115;-81
2023/07/21 11:35:08;;;;;;;12.18;6.50;;;;;;;;;;5018175;28;20053;-80
2023/07/21 11:37:44;;;;;;;12.38;6.78;;;;;;;;;;5035486;28;20030;-80
2023/07/21 11:40:14;;;;;;;13.82;6.78;;;;;;;;;;5018237;28;20025;-80
2023/07/21 11:42:47;;;;;;;10.38;6.07;;;;;;;;;;5035953;28;20039;-81
2023/07/21 11:45:35;;;;;;;11.68;6.70;;;;;;;;;;5018489;28;20037;-81
2023/07/21 11:48:12;;;;;;;11.70;6.47;;;;;;;;;;5035788;28;20488;-80
2023/07/21 11:50:42;;;;;;;12.50;6.25;;;;;;;;;;5017916;28;20030;-80
2023/07/21 11:53:07;;;;;;;9.15;6.35;;;;;;;;;;5018005;28;20064;-81
2023/07/21 11:55:34;;;;;;;15.68;7.05;;;;;;;;;;5018002;28;20449;-81
2023/07/21 11:57:59;;;;;;;13.13;6.45;;;;;;;;;;5035320;28;20025;-81
2023/07/21 12:00:27;;;;;;;10.80;6.22;;;;;;;;;;5034494;28;20141;-81
2023/07/21 12:02:53;;;;;;;11.57;7.18;;;;;;;;;;5020112;28;20025;-80
2023/07/21 12:05:18;;;;;;;12.43;6.07;;;;;;;;;;5024578;28;20053;-81
2023/07/21 12:07:43;;;;;;;9.60;6.03;;;;;;;;;;5045602;28;20032;-80
2023/07/21 12:10:10;;;;;;;9.48;6.30;;;;;;;;;;5019487;28;20075;-81
2023/07/21 12:12:37;;;;;;;10.43;6.20;;;;;;;;;;5036966;28;20033;-81
2023/07/21 12:15:04;;;;;;;13.00;5.70;;;;;;;;;;5035195;28;20096;-81
2023/07/21 12:17:29;;;;;;;11.10;5.82;;;;;;;;;;5034032;28;20495;-81
2023/07/21 12:19:55;;;;;;;15.77;5.80;;;;;;;;;;5034781;28;20026;-80
2023/07/21 12:22:24;;;;;;;9.07;5.60;;;;;;;;;;5035145;28;20057;-80
2023/07/21 12:24:50;;;;;;;8.27;5.60;;;;;;;;;;5035254;28;20037;-81
2023/07/21 12:27:15;;;;;;;9.63;5.30;;;;;;;;;;5035045;28;20087;-81
2023/07/21 12:29:41;;;;;;;12.02;5.63;;;;;;;;;;5017085;28;20060;-81
2023/07/21 12:32:07;;;;;;;9.02;5.60;;;;;;;;;;5034616;28;20079;-81
2023/07/21 12:34:32;;;;;;;10.35;5.30;;;;;;;;;;5034449;28;20053;-80
2023/07/21 12:36:58;;;;;;;11.43;5.53;;;;;;;;;;5035204;28;20036;-80
2023/07/21 12:39:23;;;;;;;14.02;5.45;;;;;;;;;;5017091;28;20029;-80
2023/07/21 12:41:49;;;;;;;9.73;5.40;;;;;;;;;;5034462;28;20025;-81
2023/07/21 12:44:14;;;;;;;11.52;5.40;;;;;;;;;;5017432;28;20770;-81
2023/07/21 12:46:40;;;;;;;8.77;5.57;;;;;;;;;;5017270;28;20064;-81
2023/07/21 12:49:06;;;;;;;8.68;5.47;;;;;;;;;;5033109;28;20094;-80
2023/07/21 12:51:31;;;;;;;12.43;6.10;;;;;;;;;;5034421;28;20025;-80
2023/07/21 12:53:56;;;;;;;7.05;5.38;;;;;;;;;;5034369;28;20441;-80
2023/07/21 12:56:22;;;;;;;6.63;5.57;;;;;;;;;;5034329;28;20032;-81
2023/07/21 12:58:47;;;;;;;10.20;5.70;;;;;;;;;;5016730;28;20029;-81
2023/07/21 13:01:12;;;;;;;9.70;5.50;;;;;;;;;;5033027;28;20032;-81
2023/07/21 13:03:38;;;;;;;10.65;5.53;;;;;;;;;;5034225;28;20365;-80
2023/07/21 13:06:03;;;;;;;11.85;6.00;;;;;;;;;;5034124;28;20049;-80
2023/07/21 13:08:29;;;;;;;8.65;5.78;;;;;;;;;;5034301;28;20472;-80
2023/07/21 13:10:56;;;;;;;12.65;5.32;;;;;;;;;;5034736;28;20049;-80
2023/07/21 13:13:22;;;;;;;9.27;5.53;;;;;;;;;;5034442;28;20353;-81
2023/07/21 13:15:47;;;;;;;10.25;5.95;;;;;;;;;;5016390;28;20040;-81
2023/07/21 13:18:13;;;;;;;12.57;6.10;;;;;;;;;;5033717;28;20464;-81
2023/07/21 13:20:38;;;;;;;9.80;5.65;;;;;;;;;;5016393;28;20064;-80
2023/07/21 13:23:03;;;;;;;14.00;5.90;;;;;;;;;;5033914;28;20346;-80
2023/07/21 13:25:29;;;;;;;11.23;6.15;;;;;;;;;;5033840;28;20033;-80
2023/07/21 13:27:54;;;;;;;8.43;5.68;;;;;;;;;;5033834;28;20029;-80
2023/07/21 13:30:21;;;;;;;8.05;5.82;;;;;;;;;;5033957;28;20030;-80
2023/07/21 13:32:46;;;;;;;13.60;7.38;;;;;;;;;;5016049;28;20091;-81
2023/07/21 13:35:11;;;;;;;14.43;9.20;;;;;;;;;;5033970;28;20116;-80
2023/07/21 13:37:37;;;;;;;12.40;7.20;;;;;;;;;;5034135;28;20140;-81
2023/07/21 13:40:04;;;;;;;9.98;5.93;;;;;;;;;;5034151;28;20075;-81
2023/07/21 13:42:29;;;;;;;9.70;5.95;;;;;;;;;;5034156;28;20049;-80
2023/07/21 13:44:55;;;;;;;9.88;6.07;;;;;;;;;;5037736;28;20453;-80
2023/07/21 13:47:20;;;;;;;7.07;5.47;;;;;;;;;;5037665;28;20033;-80
2023/07/21 13:49:46;;;;;;;8.73;5.75;;;;;;;;;;5046465;28;20041;-79
2023/07/21 13:52:11;;;;;;;11.55;6.00;;;;;;;;;;5058832;28;20010;-80
2023/07/21 13:54:38;;;;;;;12.50;5.75;;;;;;;;;;5059039;28;20056;-81
2023/07/21 13:57:03;;;;;;;12.23;5.63;;;;;;;;;;5042361;28;20049;-80
2023/07/21 13:59:29;;;;;;;12.77;5.50;;;;;;;;;;5054367;28;20033;-80
2023/07/21 14:01:55;;;;;;;10.80;6.50;;;;;;;;;;5037666;28;20400;-80
2023/07/21 14:04:21;;;;;;;10.52;5.85;;;;;;;;;;5037752;28;20061;-79
2023/07/21 14:06:46;;;;;;;10.73;5.70;;;;;;;;;;5019592;28;20038;-81
2023/07/21 14:09:13;;;;;;;8.40;5.70;;;;;;;;;;5020047;28;20033;-80
2023/07/21 14:11:39;;;;;;;10.73;5.80;;;;;;;;;;5019822;28;20033;-80
2023/07/21 14:14:04;;;;;;;10.85;5.78;;;;;;;;;;5019614;28;20094;-80
2023/07/21 14:16:30;;;;;;;9.05;6.00;;;;;;;;;;5037339;28;20071;-81
2023/07/21 14:18:55;;;;;;;9.35;5.95;;;;;;;;;;5019692;28;20099;-81
2023/07/21 14:21:21;;;;;;;11.38;5.80;;;;;;;;;;5019752;28;20026;-79
2023/07/21 14:23:47;;;;;;;8.93;5.43;;;;;;;;;;5036154;28;20439;-81
2023/07/21 14:26:12;;;;;;;10.05;5.78;;;;;;;;;;5036983;28;20120;-80
2023/07/21 14:28:38;;;;;;;7.53;5.63;;;;;;;;;;5019417;28;20028;-80
2023/07/21 14:31:06;;;;;;;14.45;6.40;;;;;;;;;;5036798;28;20024;-80